Terminal Aerodrome Forecast
Issued by NWS Cleveland, OH

Home | Current Version | Previous Version | Graphics & Text | Print | Product List | Glossary On
Versions: 1 2 3 4 5 6 7 8 9 10 11 12 13 14
232
FTUS41 KCLE 052339
TAFTOL
TAF
KTOL 052339Z 0600/0624 VRB03KT P6SM OVC025
     FM060300 12003KT P6SM SCT025 BKN100
     FM061400 08008KT 5SM -RA OVC025
     FM061600 09010KT 2SM -RA BR OVC008
     FM062200 31010KT P6SM OVC025=

USA.gov is the U.S. government's official web portal to all federal, state and local government web resources and services.